createdAt,value
2022-08-12T00:00:02.803Z,1381.44381
2022-08-12T00:15:04.696Z,1497.20722
2022-08-12T00:30:06.557Z,1387.16407
2022-08-12T00:45:08.471Z,1237.30429
2022-08-12T01:00:10.370Z,823.09632
2022-08-12T01:15:12.247Z,634.43716
2022-08-12T01:30:14.137Z,637.45828
2022-08-12T01:45:16.104Z,723.60123
2022-08-12T02:00:18.026Z,767.469
2022-08-12T02:15:19.947Z,817.57219
2022-08-12T02:30:21.831Z,862.29136
2022-08-12T02:45:23.744Z,1027.60786
2022-08-12T03:00:25.667Z,979.53266
2022-08-12T03:15:27.567Z,930.55605
2022-08-12T03:30:29.397Z,973.13049
2022-08-12T03:45:31.280Z,1040.37317
2022-08-12T04:00:33.272Z,888.59466
2022-08-12T04:15:35.173Z,413.67829
2022-08-12T04:30:37.104Z,481.53335
2022-08-12T04:45:38.969Z,682.99098
2022-08-12T05:00:40.901Z,741.23048
2022-08-12T05:15:53.075Z,775.46346
2022-08-12T05:31:07.767Z,718.16646
2022-08-12T05:46:09.677Z,807.22941
2022-08-12T06:02:10.788Z,677.4607
2022-08-12T06:17:14.787Z,884.48895
2022-08-12T06:32:16.690Z,775.01496
2022-08-12T06:47:20.369Z,1010.55857
2022-08-12T07:02:22.270Z,915.30104
2022-08-12T07:17:24.167Z,940.35138
2022-08-12T07:32:29.570Z,975.25523
2022-08-12T07:47:31.530Z,1131.75726
2022-08-12T08:02:33.439Z,1193.23292
2022-08-12T08:17:35.355Z,1201.79423
2022-08-12T08:32:37.242Z,1127.94663
2022-08-12T08:47:39.123Z,1100.16471
2022-08-12T09:02:41.242Z,1171.32918
2022-08-12T09:17:52.139Z,667.99518
2022-08-12T09:33:03.815Z,704.5591
2022-08-12T09:48:07.657Z,876.39029
2022-08-12T10:03:32.161Z,978.81715
2022-08-12T10:18:35.658Z,1015.15202
2022-08-12T10:33:55.081Z,662.70414
2022-08-12T10:50:06.851Z,750.70078
2022-08-12T11:07:03.245Z,812.12171
2022-08-12T11:23:25.070Z,886.24388
2022-08-12T11:38:38.498Z,1027.60786
2022-08-12T11:53:59.581Z,983.84778
2022-08-12T12:09:02.986Z,1066.03073
2022-08-12T12:24:04.867Z,614.06534
2022-08-12T12:39:10.594Z,523.73342
2022-08-12T12:54:13.042Z,676.7757
2022-08-12T13:09:18.101Z,341.07816
2022-08-12T13:24:24.246Z,457.81901
2022-08-12T13:39:26.139Z,552.70956
2022-08-12T13:54:29.711Z,647.32223
2022-08-12T14:09:31.627Z,565.31357
2022-08-12T14:24:36.742Z,435.47914
2022-08-12T14:39:42.740Z,529.95352
2022-08-12T15:10:30.088Z,484.67151
2022-08-12T15:25:40.273Z,444.44317
2022-08-12T15:40:49.542Z,338.62336
2022-08-12T15:55:51.479Z,423.6275
2022-08-12T16:10:59.291Z,502.501
2022-08-12T16:26:03.234Z,727.53384
2022-08-12T16:41:08.333Z,913.42926
2022-08-12T16:56:10.289Z,542.40785
2022-08-12T17:11:18.163Z,443.85373
2022-08-12T17:26:22.102Z,715.86218
2022-08-12T17:41:56.962Z,845.96009
2022-08-12T17:56:59.412Z,1090.31783
2022-08-12T18:12:07.365Z,1192.17132
2022-08-12T18:27:28.043Z,1474.14793
2022-08-12T18:42:32.474Z,1562.68271
2022-08-12T18:58:06.067Z,1698.35284
2022-08-12T19:13:10.601Z,1686.59584
2022-08-12T19:28:12.552Z,1577.39896
2022-08-12T19:43:20.082Z,1419.49204
2022-08-12T19:58:22.645Z,1614.45832
2022-08-12T20:13:27.180Z,1733.50632
2022-08-12T20:28:39.268Z,1564.50721
2022-08-12T20:43:42.065Z,1525.32775
2022-08-12T20:58:44.144Z,1407.56354
2022-08-12T21:13:48.087Z,1302.23569
2022-08-12T21:28:56.779Z,1236.16287
2022-08-12T21:44:01.611Z,1202.87304
2022-08-12T21:59:03.835Z,1207.20771
2022-08-12T22:14:09.187Z,1180.61724
2022-08-12T22:29:11.267Z,1190.05379
2022-08-12T22:44:19.090Z,967.50952
2022-08-12T22:59:21.774Z,1022.12102
2022-08-12T23:14:24.884Z,1241.89115
2022-08-12T23:29:42.907Z,1375.77053
2022-08-12T23:44:45.871Z,1300.97138
2022-08-12T23:59:47.752Z,1048.5138
